Time;durP1;ratioP1;P1;durP2;ratioP2;P2;SDS_P1;SDS_P2;PMS_P1;PMS_P2;Temp;Humidity;BMP_temperature;BMP_pressure;BME280_temperature;BME280_humidity;BME280_pressure;Samples;Min_cycle;Max_cycle;Signal;HPM_P1;HPM_P2
2021/01/19 00:01:10;;;;;;;2.03;1.80;;;;;;;;;;5055734;28;20223;-76
2021/01/19 00:03:36;;;;;;;4.50;1.70;;;;;;;;;;5055890;28;20165;-74
2021/01/19 00:06:03;;;;;;;2.30;1.80;;;;;;;;;;5055803;28;20222;-76
2021/01/19 00:08:31;;;;;;;2.17;1.85;;;;;;;;;;5055534;28;20221;-77
2021/01/19 00:10:57;;;;;;;2.78;1.95;;;;;;;;;;5055811;28;20172;-75
2021/01/19 00:13:23;;;;;;;1.70;1.57;;;;;;;;;;5055657;28;20213;-77
2021/01/19 00:15:49;;;;;;;2.83;1.97;;;;;;;;;;5055442;28;20411;-75
2021/01/19 00:18:15;;;;;;;2.58;2.15;;;;;;;;;;5055303;28;20425;-74
2021/01/19 00:20:41;;;;;;;2.65;1.52;;;;;;;;;;5055245;28;20168;-76
2021/01/19 00:23:07;;;;;;;3.35;1.65;;;;;;;;;;5055274;28;20215;-77
2021/01/19 00:28:37;;;;;;;2.42;1.80;;;;;;;;;;5055463;28;20243;-75
2021/01/19 00:31:03;;;;;;;2.70;1.70;;;;;;;;;;5055293;28;20168;-75
2021/01/19 00:33:30;;;;;;;1.75;1.65;;;;;;;;;;5055299;28;20426;-76
2021/01/19 00:35:56;;;;;;;2.88;1.83;;;;;;;;;;5055284;28;20263;-76
2021/01/19 00:38:22;;;;;;;6.38;2.05;;;;;;;;;;5055215;28;20172;-76
2021/01/19 00:43:51;;;;;;;3.28;1.90;;;;;;;;;;5054901;28;21062;-76
2021/01/19 00:46:17;;;;;;;3.80;2.50;;;;;;;;;;5037076;28;20275;-77
2021/01/19 00:48:43;;;;;;;4.20;1.90;;;;;;;;;;5053701;28;20790;-77
2021/01/19 00:51:09;;;;;;;1.30;1.20;;;;;;;;;;5054714;28;20872;-77
2021/01/19 00:53:35;;;;;;;3.03;2.28;;;;;;;;;;5054522;28;20212;-77
2021/01/19 00:56:01;;;;;;;2.60;1.70;;;;;;;;;;5054632;28;20172;-74
2021/01/19 00:58:27;;;;;;;1.77;1.50;;;;;;;;;;5054367;28;20684;-77
2021/01/19 01:00:53;;;;;;;5.13;1.40;;;;;;;;;;5054288;28;20208;-78
2021/01/19 01:03:19;;;;;;;4.10;1.48;;;;;;;;;;5054379;28;20419;-74
2021/01/19 01:05:47;;;;;;;2.80;1.90;;;;;;;;;;5054412;28;20169;-75
2021/01/19 01:08:12;;;;;;;2.78;2.05;;;;;;;;;;5054703;28;20426;-76
2021/01/19 01:13:42;;;;;;;11.85;2.17;;;;;;;;;;5054200;28;20838;-76
2021/01/19 01:16:14;;;;;;;2.47;2.27;;;;;;;;;;5054255;28;20255;-76
2021/01/19 01:18:40;;;;;;;5.63;1.85;;;;;;;;;;5053964;28;20412;-75
2021/01/19 01:21:10;;;;;;;2.75;2.03;;;;;;;;;;5054105;28;20211;-75
2021/01/19 01:23:35;;;;;;;1.90;1.70;;;;;;;;;;5054160;28;20169;-76
2021/01/19 01:29:05;;;;;;;2.80;1.70;;;;;;;;;;5053729;28;20425;-77
2021/01/19 01:31:32;;;;;;;2.13;1.92;;;;;;;;;;5053794;28;20207;-75
2021/01/19 01:33:58;;;;;;;1.48;1.38;;;;;;;;;;5053752;28;20208;-73
2021/01/19 01:36:23;;;;;;;1.53;1.43;;;;;;;;;;5053749;28;20281;-76
2021/01/19 01:44:38;;;;;;;2.08;1.88;;;;;;;;;;5053862;28;20246;-75
2021/01/19 01:47:04;;;;;;;6.23;1.83;;;;;;;;;;5053640;28;20161;-78
2021/01/19 01:49:30;;;;;;;2.03;1.93;;;;;;;;;;5053378;28;20722;-77
2021/01/19 01:51:57;;;;;;;4.60;3.00;;;;;;;;;;5053494;28;20462;-76
2021/01/19 01:54:26;;;;;;;2.55;2.35;;;;;;;;;;5053214;28;20404;-76
2021/01/19 01:56:52;;;;;;;2.83;2.10;;;;;;;;;;5053384;28;20666;-75
2021/01/19 01:59:17;;;;;;;3.05;1.60;;;;;;;;;;5052840;28;20218;-76
2021/01/19 02:01:43;;;;;;;5.03;1.80;;;;;;;;;;5053028;28;20228;-75
2021/01/19 02:04:09;;;;;;;3.00;2.10;;;;;;;;;;5053172;28;20411;-75
2021/01/19 02:06:35;;;;;;;2.90;2.60;;;;;;;;;;5053250;28;20415;-76
2021/01/19 02:09:08;;;;;;;1.60;1.40;;;;;;;;;;5053047;28;20514;-77
2021/01/19 02:11:37;;;;;;;5.30;1.83;;;;;;;;;;5053217;28;20231;-74
2021/01/19 02:14:10;;;;;;;3.55;1.88;;;;;;;;;;5053135;28;20305;-75
2021/01/19 02:16:55;;;;;;;2.58;1.90;;;;;;;;;;5053082;28;20496;-76
2021/01/19 02:19:39;;;;;;;2.58;2.20;;;;;;;;;;5053342;28;20180;-75
2021/01/19 02:22:24;;;;;;;2.55;2.33;;;;;;;;;;5053029;28;20180;-77
2021/01/19 02:25:08;;;;;;;1.48;1.38;;;;;;;;;;5053077;28;20521;-75
2021/01/19 02:27:49;;;;;;;2.28;1.60;;;;;;;;;;5052896;28;20267;-76
2021/01/19 02:30:30;;;;;;;1.75;1.65;;;;;;;;;;5052704;28;20171;-76
2021/01/19 02:33:03;;;;;;;4.68;1.70;;;;;;;;;;5052412;28;20218;-75
2021/01/19 02:35:38;;;;;;;1.60;1.50;;;;;;;;;;5052913;28;20627;-77
2021/01/19 02:38:22;;;;;;;1.73;1.58;;;;;;;;;;5052504;28;20254;-76
2021/01/19 02:40:53;;;;;;;1.60;1.20;;;;;;;;;;5052941;28;20167;-77
2021/01/19 02:43:23;;;;;;;1.70;1.58;;;;;;;;;;5052950;28;20202;-76
2021/01/19 02:45:49;;;;;;;2.10;1.60;;;;;;;;;;5053184;28;20301;-74
2021/01/19 02:48:16;;;;;;;3.80;1.55;;;;;;;;;;5052797;28;20175;-76
2021/01/19 02:50:42;;;;;;;2.08;1.88;;;;;;;;;;5052643;28;20640;-76
2021/01/19 02:53:09;;;;;;;1.85;1.40;;;;;;;;;;5052657;28;20208;-75
2021/01/19 02:55:35;;;;;;;2.10;1.50;;;;;;;;;;5052637;28;20179;-77
2021/01/19 02:58:03;;;;;;;2.67;1.67;;;;;;;;;;5052874;28;20539;-77
2021/01/19 03:00:49;;;;;;;2.35;1.63;;;;;;;;;;5052898;28;20431;-76
2021/01/19 03:03:16;;;;;;;3.00;2.00;;;;;;;;;;5052405;28;20653;-77
2021/01/19 03:05:43;;;;;;;1.63;1.52;;;;;;;;;;5052501;28;20178;-76
2021/01/19 03:08:10;;;;;;;1.60;1.50;;;;;;;;;;5052609;28;20166;-74
2021/01/19 03:10:38;;;;;;;2.83;2.28;;;;;;;;;;5052421;28;20172;-76
2021/01/19 03:13:04;;;;;;;2.30;1.80;;;;;;;;;;5055938;28;20207;-74
2021/01/19 03:15:30;;;;;;;3.13;2.15;;;;;;;;;;5056594;28;20608;-77
2021/01/19 03:17:57;;;;;;;3.77;1.73;;;;;;;;;;5056397;28;20225;-77
2021/01/19 03:20:25;;;;;;;1.77;1.52;;;;;;;;;;5056483;28;20764;-74
2021/01/19 03:22:51;;;;;;;1.40;1.30;;;;;;;;;;5056745;28;20202;-76
2021/01/19 03:25:17;;;;;;;3.58;1.40;;;;;;;;;;5056442;28;20577;-75
2021/01/19 03:27:43;;;;;;;3.30;1.80;;;;;;;;;;5056704;28;20196;-76
2021/01/19 03:30:09;;;;;;;2.50;2.00;;;;;;;;;;5056281;28;20650;-74
2021/01/19 03:32:35;;;;;;;5.60;2.10;;;;;;;;;;5056470;28;20469;-77
2021/01/19 03:35:01;;;;;;;4.10;1.58;;;;;;;;;;5056334;28;20172;-77
2021/01/19 03:37:27;;;;;;;2.27;2.07;;;;;;;;;;5056366;28;20622;-76
2021/01/19 03:39:53;;;;;;;1.60;1.25;;;;;;;;;;5038266;28;20458;-77
2021/01/19 03:42:19;;;;;;;2.03;1.93;;;;;;;;;;5056086;28;20577;-78
2021/01/19 03:44:45;;;;;;;2.33;1.60;;;;;;;;;;5056184;28;20418;-77
2021/01/19 03:47:11;;;;;;;6.70;1.90;;;;;;;;;;5056138;28;20427;-76
2021/01/19 03:49:37;;;;;;;1.73;1.63;;;;;;;;;;5056130;28;20424;-77
2021/01/19 03:52:03;;;;;;;2.50;1.93;;;;;;;;;;5055866;28;21014;-75
2021/01/19 03:54:29;;;;;;;5.35;2.00;;;;;;;;;;5055767;28;20778;-76
2021/01/19 03:59:58;;;;;;;1.90;1.80;;;;;;;;;;5055844;28;20413;-77
2021/01/19 04:02:24;;;;;;;2.80;2.10;;;;;;;;;;5055582;28;20227;-77
2021/01/19 04:04:53;;;;;;;7.67;1.90;;;;;;;;;;5055897;28;20413;-76
2021/01/19 04:07:19;;;;;;;2.25;1.90;;;;;;;;;;5055910;28;20418;-77
2021/01/19 04:09:45;;;;;;;3.28;2.03;;;;;;;;;;5055660;28;20175;-74
2021/01/19 04:12:11;;;;;;;2.30;1.70;;;;;;;;;;5055739;28;20662;-74
2021/01/19 04:14:37;;;;;;;3.10;1.90;;;;;;;;;;5055593;28;20209;-75
2021/01/19 04:17:03;;;;;;;2.40;2.20;;;;;;;;;;5055646;28;20919;-76
2021/01/19 04:19:29;;;;;;;2.10;1.90;;;;;;;;;;5055576;28;20739;-75
2021/01/19 04:21:55;;;;;;;3.63;2.17;;;;;;;;;;5055555;28;20453;-76
2021/01/19 04:24:21;;;;;;;2.27;2.03;;;;;;;;;;5055291;28;20472;-76
2021/01/19 04:29:50;;;;;;;2.50;2.30;;;;;;;;;;5055183;28;20477;-76
2021/01/19 04:32:17;;;;;;;2.58;2.28;;;;;;;;;;5055401;28;20607;-77
2021/01/19 04:34:43;;;;;;;3.60;2.15;;;;;;;;;;5055458;28;20172;-75
2021/01/19 04:37:09;;;;;;;1.77;1.67;;;;;;;;;;5055167;28;20537;-75
2021/01/19 04:39:35;;;;;;;2.42;2.00;;;;;;;;;;5054794;28;20403;-76
2021/01/19 04:45:05;;;;;;;2.83;2.53;;;;;;;;;;5054891;28;20856;-77
2021/01/19 04:47:32;;;;;;;3.05;1.63;;;;;;;;;;5054969;28;20219;-77
2021/01/19 04:49:59;;;;;;;3.50;2.65;;;;;;;;;;5054817;28;20167;-76
2021/01/19 04:52:27;;;;;;;5.90;2.10;;;;;;;;;;5055114;28;20609;-76
2021/01/19 05:01:08;;;;;;;3.00;2.42;;;;;;;;;;5054461;28;20735;-78
2021/01/19 05:03:41;;;;;;;5.07;2.63;;;;;;;;;;5054573;28;20265;-77
2021/01/19 05:06:31;;;;;;;3.42;2.30;;;;;;;;;;5054465;28;20222;-76
2021/01/19 05:08:57;;;;;;;2.90;2.70;;;;;;;;;;5008037;28;20192;-77
2021/01/19 05:11:28;;;;;;;4.22;2.20;;;;;;;;;;5054332;28;20169;-76
2021/01/19 05:13:55;;;;;;;2.60;2.38;;;;;;;;;;5054334;28;20172;-78
2021/01/19 05:16:26;;;;;;;2.67;2.45;;;;;;;;;;5054185;28;20176;-77
2021/01/19 05:18:52;;;;;;;3.03;2.00;;;;;;;;;;5054171;28;20206;-74
2021/01/19 05:21:18;;;;;;;4.00;2.75;;;;;;;;;;5054158;28;20247;-73
2021/01/19 05:23:45;;;;;;;3.10;2.38;;;;;;;;;;5054186;28;20175;-77
2021/01/19 05:26:12;;;;;;;3.65;2.60;;;;;;;;;;5054199;28;20183;-75
2021/01/19 05:28:40;;;;;;;3.80;1.98;;;;;;;;;;5054088;28;20168;-77
2021/01/19 05:31:15;;;;;;;3.25;2.33;;;;;;;;;;5054296;28;20171;-75
2021/01/19 05:33:42;;;;;;;3.00;2.05;;;;;;;;;;5053798;28;20187;-75
2021/01/19 05:36:09;;;;;;;3.22;2.03;;;;;;;;;;5053543;28;20180;-75
2021/01/19 05:38:47;;;;;;;7.50;2.38;;;;;;;;;;5053816;28;20627;-75
2021/01/19 05:41:32;;;;;;;2.92;2.50;;;;;;;;;;5053959;28;20165;-73
2021/01/19 05:44:17;;;;;;;3.78;2.50;;;;;;;;;;5054152;28;20179;-76
2021/01/19 05:46:46;;;;;;;5.00;2.55;;;;;;;;;;5054104;28;20229;-74
2021/01/19 05:49:14;;;;;;;3.65;2.08;;;;;;;;;;5053944;28;20165;-74
2021/01/19 05:51:42;;;;;;;2.78;2.35;;;;;;;;;;5035841;28;20212;-75
2021/01/19 05:54:10;;;;;;;3.03;2.10;;;;;;;;;;5053703;28;20582;-75
2021/01/19 05:56:38;;;;;;;3.83;2.10;;;;;;;;;;5053933;28;20202;-75
2021/01/19 05:59:05;;;;;;;3.90;2.30;;;;;;;;;;5053499;28;20171;-74
2021/01/19 06:01:34;;;;;;;2.97;2.33;;;;;;;;;;5053532;28;20341;-76
2021/01/19 06:04:01;;;;;;;4.15;2.35;;;;;;;;;;5053405;28;20207;-74
2021/01/19 06:06:29;;;;;;;3.33;2.25;;;;;;;;;;5053552;28;20169;-74
2021/01/19 06:08:59;;;;;;;5.95;2.30;;;;;;;;;;5053132;28;20685;-75
2021/01/19 06:11:25;;;;;;;3.40;2.35;;;;;;;;;;5052935;28;20642;-78
2021/01/19 06:13:51;;;;;;;4.07;1.98;;;;;;;;;;5053209;28;20182;-79
2021/01/19 06:16:20;;;;;;;2.08;1.98;;;;;;;;;;5053401;28;20169;-77
2021/01/19 06:18:46;;;;;;;6.75;2.10;;;;;;;;;;5053501;28;20182;-75
2021/01/19 06:21:25;;;;;;;3.13;2.65;;;;;;;;;;5053186;28;20201;-75
2021/01/19 06:23:51;;;;;;;2.17;1.95;;;;;;;;;;5053082;28;20176;-74
2021/01/19 06:26:17;;;;;;;2.23;2.03;;;;;;;;;;5053266;28;20575;-76
2021/01/19 06:28:43;;;;;;;2.08;1.85;;;;;;;;;;5052367;28;20440;-74
2021/01/19 06:31:17;;;;;;;7.13;1.77;;;;;;;;;;5053122;28;20633;-76
2021/01/19 06:33:46;;;;;;;5.35;2.40;;;;;;;;;;5053252;28;20211;-76
2021/01/19 06:36:12;;;;;;;2.38;2.17;;;;;;;;;;5053314;28;20247;-76
2021/01/19 06:38:43;;;;;;;2.97;1.95;;;;;;;;;;5053077;28;20271;-75
2021/01/19 06:41:14;;;;;;;3.08;2.03;;;;;;;;;;5053034;28;20525;-75
2021/01/19 06:43:44;;;;;;;2.63;2.40;;;;;;;;;;5052874;28;20175;-75
2021/01/19 06:46:11;;;;;;;2.35;1.60;;;;;;;;;;5052179;28;20245;-74
2021/01/19 06:48:40;;;;;;;3.10;1.83;;;;;;;;;;5053068;28;20237;-76
2021/01/19 06:51:09;;;;;;;2.97;2.67;;;;;;;;;;5052649;28;20267;-75
2021/01/19 06:53:45;;;;;;;3.80;2.70;;;;;;;;;;5052907;28;20219;-77
2021/01/19 06:56:13;;;;;;;2.70;2.45;;;;;;;;;;5052842;28;20641;-76
2021/01/19 06:58:46;;;;;;;3.50;2.58;;;;;;;;;;5053080;28;20180;-74
2021/01/19 07:01:14;;;;;;;5.18;2.10;;;;;;;;;;5052823;28;20247;-75
2021/01/19 07:03:41;;;;;;;2.72;2.53;;;;;;;;;;5052882;28;20177;-74
2021/01/19 07:06:08;;;;;;;2.45;1.75;;;;;;;;;;5053016;28;20169;-74
2021/01/19 07:09:03;;;;;;;2.42;2.22;;;;;;;;;;5052535;28;20176;-74
2021/01/19 07:11:38;;;;;;;3.30;2.60;;;;;;;;;;5052424;28;20176;-75
2021/01/19 07:14:14;;;;;;;5.60;2.35;;;;;;;;;;5052703;28;20176;-75
2021/01/19 07:16:56;;;;;;;5.95;2.45;;;;;;;;;;5034565;28;20273;-75
2021/01/19 07:19:25;;;;;;;4.05;2.45;;;;;;;;;;5052864;28;20202;-76
2021/01/19 07:21:57;;;;;;;3.40;3.08;;;;;;;;;;5051321;28;20183;-76
2021/01/19 07:24:26;;;;;;;3.92;2.92;;;;;;;;;;5051682;28;20636;-76
2021/01/19 07:26:53;;;;;;;5.32;2.90;;;;;;;;;;5052028;28;20205;-76
2021/01/19 07:29:21;;;;;;;3.25;2.63;;;;;;;;;;5051980;28;20186;-75
2021/01/19 07:31:47;;;;;;;4.50;3.15;;;;;;;;;;5034221;28;20203;-76
2021/01/19 07:34:13;;;;;;;6.35;3.17;;;;;;;;;;5051969;28;20267;-76
2021/01/19 07:36:39;;;;;;;3.40;2.65;;;;;;;;;;5052244;28;20249;-76
2021/01/19 07:39:12;;;;;;;3.53;2.95;;;;;;;;;;5051999;28;20211;-77
2021/01/19 07:41:38;;;;;;;3.92;3.10;;;;;;;;;;5052311;28;20207;-76
2021/01/19 07:44:04;;;;;;;5.32;3.47;;;;;;;;;;5052035;28;20175;-79
2021/01/19 07:46:30;;;;;;;4.00;2.70;;;;;;;;;;5051737;28;20190;-76
2021/01/19 07:49:00;;;;;;;3.90;3.08;;;;;;;;;;5051834;28;20169;-76
2021/01/19 07:51:26;;;;;;;3.03;2.72;;;;;;;;;;5051576;28;20168;-76
2021/01/19 07:53:55;;;;;;;4.40;2.80;;;;;;;;;;5051363;28;20179;-75
2021/01/19 07:56:24;;;;;;;4.88;2.75;;;;;;;;;;5051153;28;20171;-75
2021/01/19 07:58:51;;;;;;;4.65;2.97;;;;;;;;;;5053779;28;20631;-75
2021/01/19 08:01:26;;;;;;;3.15;2.88;;;;;;;;;;5054006;28;20311;-75
2021/01/19 08:03:53;;;;;;;3.17;2.83;;;;;;;;;;5054672;28;20476;-75
2021/01/19 08:06:30;;;;;;;10.25;2.92;;;;;;;;;;5054586;28;20305;-75
2021/01/19 08:08:56;;;;;;;4.90;2.70;;;;;;;;;;5054629;28;20587;-76
2021/01/19 08:11:22;;;;;;;3.53;2.67;;;;;;;;;;5054477;28;20174;-77
2021/01/19 08:13:58;;;;;;;4.57;2.38;;;;;;;;;;5036655;28;20198;-76
2021/01/19 08:16:28;;;;;;;4.90;3.10;;;;;;;;;;5054275;28;20165;-75
2021/01/19 08:19:07;;;;;;;3.78;2.53;;;;;;;;;;5054285;28;20176;-74
2021/01/19 08:21:34;;;;;;;6.38;2.70;;;;;;;;;;5054393;28;20607;-75
2021/01/19 08:24:04;;;;;;;5.65;2.47;;;;;;;;;;5054136;28;20176;-77
2021/01/19 08:26:30;;;;;;;2.33;2.13;;;;;;;;;;5054098;28;20252;-76
2021/01/19 08:28:56;;;;;;;3.28;1.90;;;;;;;;;;5054107;28;20254;-76
2021/01/19 08:31:22;;;;;;;3.50;2.50;;;;;;;;;;5054063;28;20247;-77
2021/01/19 08:33:50;;;;;;;14.65;3.67;;;;;;;;;;5054222;28;20423;-77
2021/01/19 08:36:19;;;;;;;6.28;2.42;;;;;;;;;;5054459;28;20255;-77
2021/01/19 08:38:48;;;;;;;6.15;3.17;;;;;;;;;;5054029;28;20172;-76
2021/01/19 08:41:18;;;;;;;6.47;3.88;;;;;;;;;;5054091;28;20161;-75
2021/01/19 08:46:48;;;;;;;3.17;2.40;;;;;;;;;;5054092;28;20192;-76
2021/01/19 08:49:15;;;;;;;3.10;2.83;;;;;;;;;;5053046;28;20165;-76
2021/01/19 08:51:53;;;;;;;5.18;2.70;;;;;;;;;;5052631;28;20223;-76
2021/01/19 08:54:20;;;;;;;3.70;2.55;;;;;;;;;;5052404;28;20176;-76
2021/01/19 08:56:46;;;;;;;4.85;2.55;;;;;;;;;;5052715;28;20182;-76
2021/01/19 08:59:12;;;;;;;8.80;2.40;;;;;;;;;;5052696;28;20173;-76
2021/01/19 09:01:51;;;;;;;3.17;2.58;;;;;;;;;;5052740;28;20285;-76
2021/01/19 09:04:27;;;;;;;2.25;2.05;;;;;;;;;;5052541;28;20169;-76
2021/01/19 09:06:53;;;;;;;3.80;2.80;;;;;;;;;;5052995;28;20559;-77
2021/01/19 09:09:23;;;;;;;6.50;3.10;;;;;;;;;;5051555;28;20180;-75
2021/01/19 09:11:53;;;;;;;3.45;3.00;;;;;;;;;;5052730;28;20197;-75
2021/01/19 09:14:28;;;;;;;4.35;3.33;;;;;;;;;;5052543;28;20568;-76
2021/01/19 09:16:55;;;;;;;3.72;3.35;;;;;;;;;;5052859;28;20218;-77
2021/01/19 09:19:21;;;;;;;3.78;2.78;;;;;;;;;;5052430;28;20169;-76
2021/01/19 09:21:48;;;;;;;4.65;2.92;;;;;;;;;;5052246;28;20559;-75
2021/01/19 09:24:24;;;;;;;2.85;2.35;;;;;;;;;;5052369;28;20171;-76
2021/01/19 09:32:59;;;;;;;2.90;2.28;;;;;;;;;;5052278;28;20219;-76
2021/01/19 09:35:27;;;;;;;3.47;2.30;;;;;;;;;;5052094;28;20540;-77
2021/01/19 09:37:53;;;;;;;3.70;2.40;;;;;;;;;;5052314;28;20653;-77
2021/01/19 09:40:28;;;;;;;4.47;3.05;;;;;;;;;;5051953;28;20188;-77
2021/01/19 09:42:54;;;;;;;6.68;2.88;;;;;;;;;;5052142;28;20247;-77
2021/01/19 09:45:20;;;;;;;2.65;1.90;;;;;;;;;;5051598;28;20165;-76
2021/01/19 09:47:46;;;;;;;4.18;1.85;;;;;;;;;;5051906;28;20172;-76
2021/01/19 09:50:13;;;;;;;3.83;2.60;;;;;;;;;;5051771;28;20175;-74
2021/01/19 09:52:44;;;;;;;4.03;2.38;;;;;;;;;;5051598;28;20254;-74
2021/01/19 09:55:11;;;;;;;3.67;2.25;;;;;;;;;;5051275;28;20183;-74
2021/01/19 09:57:37;;;;;;;6.30;2.65;;;;;;;;;;5051397;28;20255;-76
2021/01/19 10:00:04;;;;;;;4.20;2.40;;;;;;;;;;5051334;28;20570;-76
2021/01/19 10:02:30;;;;;;;3.50;2.60;;;;;;;;;;5051372;28;20236;-76
2021/01/19 10:05:00;;;;;;;2.85;2.45;;;;;;;;;;5051519;28;20524;-76
2021/01/19 10:07:28;;;;;;;3.53;2.33;;;;;;;;;;5051305;28;20523;-75
2021/01/19 10:09:54;;;;;;;4.82;2.47;;;;;;;;;;5051089;28;20165;-75
2021/01/19 10:12:20;;;;;;;3.13;2.17;;;;;;;;;;5051244;28;20609;-76
2021/01/19 10:14:46;;;;;;;2.80;2.00;;;;;;;;;;5051219;28;20169;-76
2021/01/19 10:17:12;;;;;;;3.05;2.53;;;;;;;;;;5051200;28;20533;-77
2021/01/19 10:19:38;;;;;;;4.43;3.00;;;;;;;;;;5051182;28;20176;-76
2021/01/19 10:22:05;;;;;;;3.28;2.00;;;;;;;;;;5050857;28;20424;-75
2021/01/19 10:24:32;;;;;;;3.17;2.20;;;;;;;;;;5051055;28;20255;-75
2021/01/19 10:27:01;;;;;;;3.15;1.98;;;;;;;;;;5051237;28;20649;-76
2021/01/19 10:32:43;;;;;;;6.47;3.38;;;;;;;;;;5046740;28;20666;-75
2021/01/19 10:35:11;;;;;;;4.40;2.88;;;;;;;;;;5050384;28;20177;-74
2021/01/19 10:37:37;;;;;;;5.85;2.85;;;;;;;;;;5050228;28;20271;-75
2021/01/19 10:40:03;;;;;;;4.68;2.35;;;;;;;;;;5050596;28;20176;-75
2021/01/19 10:42:34;;;;;;;4.75;2.55;;;;;;;;;;5050599;28;20196;-75
2021/01/19 10:45:00;;;;;;;2.20;2.05;;;;;;;;;;5049885;28;20651;-77
2021/01/19 10:47:26;;;;;;;4.93;2.50;;;;;;;;;;5050095;28;20207;-76
2021/01/19 10:49:52;;;;;;;4.28;2.60;;;;;;;;;;5050050;28;20415;-77
2021/01/19 10:52:18;;;;;;;6.85;2.53;;;;;;;;;;5050209;28;20570;-77
2021/01/19 10:54:44;;;;;;;3.97;2.65;;;;;;;;;;5032522;28;20188;-77
2021/01/19 10:57:10;;;;;;;7.10;2.83;;;;;;;;;;5050430;28;20173;-75
2021/01/19 11:02:40;;;;;;;6.22;3.22;;;;;;;;;;5050238;28;20234;-76
2021/01/19 11:05:06;;;;;;;5.45;2.03;;;;;;;;;;5050445;28;20174;-77
2021/01/19 11:07:32;;;;;;;2.83;2.00;;;;;;;;;;5050421;28;20658;-76
2021/01/19 11:09:58;;;;;;;2.63;2.37;;;;;;;;;;5050209;28;20291;-76
2021/01/19 11:12:24;;;;;;;5.47;2.80;;;;;;;;;;5049964;28;20813;-76
2021/01/19 11:17:55;;;;;;;3.25;2.53;;;;;;;;;;5049984;28;20410;-76
2021/01/19 11:20:21;;;;;;;2.95;2.63;;;;;;;;;;5049957;28;20161;-77
2021/01/19 11:22:48;;;;;;;3.45;2.40;;;;;;;;;;5049937;28;20176;-76
2021/01/19 11:25:14;;;;;;;2.50;2.10;;;;;;;;;;5050312;28;20177;-77
2021/01/19 11:27:41;;;;;;;3.13;2.28;;;;;;;;;;5051161;28;20182;-75
2021/01/19 11:33:10;;;;;;;3.22;2.70;;;;;;;;;;5052430;28;20222;-74
2021/01/19 11:35:36;;;;;;;5.23;3.23;;;;;;;;;;5054815;28;20173;-76
2021/01/19 11:38:05;;;;;;;4.10;2.77;;;;;;;;;;5054919;28;20430;-76
2021/01/19 11:40:31;;;;;;;2.72;2.28;;;;;;;;;;5055085;28;20635;-75
2021/01/19 11:42:57;;;;;;;2.33;2.13;;;;;;;;;;5055069;28;20169;-74
2021/01/19 11:48:27;;;;;;;2.85;1.95;;;;;;;;;;5054852;28;20409;-74
2021/01/19 11:50:53;;;;;;;3.70;2.35;;;;;;;;;;5054900;28;20168;-74
2021/01/19 11:53:19;;;;;;;2.42;2.22;;;;;;;;;;5055051;28;20219;-75
2021/01/19 11:55:45;;;;;;;6.87;2.83;;;;;;;;;;5054999;28;20202;-75
2021/01/19 11:58:11;;;;;;;3.53;2.50;;;;;;;;;;5054597;28;20415;-75
2021/01/19 12:00:37;;;;;;;2.65;2.30;;;;;;;;;;5054923;28;20415;-76
2021/01/19 12:03:03;;;;;;;4.63;2.00;;;;;;;;;;5054725;28;20228;-77
2021/01/19 12:05:29;;;;;;;3.42;2.40;;;;;;;;;;5036374;28;20431;-78
2021/01/19 12:07:55;;;;;;;5.30;2.53;;;;;;;;;;5054737;28;20222;-76
2021/01/19 12:10:21;;;;;;;4.28;2.08;;;;;;;;;;5054724;28;20523;-76
2021/01/19 12:12:48;;;;;;;4.15;2.25;;;;;;;;;;5054686;28;20208;-76
2021/01/19 12:18:17;;;;;;;3.88;2.72;;;;;;;;;;5054685;28;20602;-76
2021/01/19 12:20:43;;;;;;;7.53;2.70;;;;;;;;;;5054480;28;20169;-76
2021/01/19 12:23:09;;;;;;;3.60;2.10;;;;;;;;;;5054412;28;20416;-75
2021/01/19 12:25:35;;;;;;;2.53;1.40;;;;;;;;;;5054083;28;20643;-75
2021/01/19 12:28:02;;;;;;;5.20;2.10;;;;;;;;;;5054497;28;20490;-76
2021/01/19 12:33:32;;;;;;;3.30;2.60;;;;;;;;;;5054181;28;20222;-76
2021/01/19 12:35:58;;;;;;;5.23;2.50;;;;;;;;;;5054153;28;20174;-76
2021/01/19 12:38:24;;;;;;;3.30;2.92;;;;;;;;;;5054128;28;20427;-76
2021/01/19 12:40:50;;;;;;;3.70;2.50;;;;;;;;;;5054111;28;20175;-77
2021/01/19 12:43:16;;;;;;;2.70;1.98;;;;;;;;;;5054019;28;20441;-76
2021/01/19 12:48:46;;;;;;;4.63;2.65;;;;;;;;;;5054347;28;20168;-75
2021/01/19 12:51:16;;;;;;;2.40;1.98;;;;;;;;;;5053911;28;20251;-76
2021/01/19 12:53:42;;;;;;;3.08;2.42;;;;;;;;;;5053542;28;20337;-77
2021/01/19 12:56:15;;;;;;;4.05;2.35;;;;;;;;;;5053273;28;20531;-76
2021/01/19 12:58:41;;;;;;;3.22;2.90;;;;;;;;;;5053640;28;20180;-77
2021/01/19 13:01:08;;;;;;;1.77;1.67;;;;;;;;;;5053576;28;20176;-75
2021/01/19 13:03:34;;;;;;;8.82;1.85;;;;;;;;;;5053688;28;20170;-75
2021/01/19 13:06:01;;;;;;;4.30;2.22;;;;;;;;;;5053588;28;20177;-75
2021/01/19 13:08:27;;;;;;;2.47;1.95;;;;;;;;;;5053686;28;20243;-76
2021/01/19 13:10:53;;;;;;;2.13;1.80;;;;;;;;;;5053478;28;20221;-76
2021/01/19 13:13:19;;;;;;;3.63;1.88;;;;;;;;;;5053512;28;20503;-76
2021/01/19 13:18:48;;;;;;;1.70;1.27;;;;;;;;;;5053552;28;20409;-76
2021/01/19 13:21:14;;;;;;;3.08;2.42;;;;;;;;;;5053595;28;20177;-77
2021/01/19 13:23:40;;;;;;;1.65;1.42;;;;;;;;;;5053280;28;20711;-74
2021/01/19 13:26:06;;;;;;;2.40;1.90;;;;;;;;;;5053388;28;20230;-76
2021/01/19 13:28:32;;;;;;;4.53;1.83;;;;;;;;;;5052851;28;20257;-76
2021/01/19 13:34:02;;;;;;;2.60;1.80;;;;;;;;;;5053499;28;20345;-76
2021/01/19 13:36:28;;;;;;;3.67;2.00;;;;;;;;;;5053123;28;20266;-76
2021/01/19 13:38:54;;;;;;;4.67;1.60;;;;;;;;;;5052785;28;20515;-77
2021/01/19 13:41:20;;;;;;;1.63;1.40;;;;;;;;;;5053055;28;20419;-76
2021/01/19 13:43:46;;;;;;;1.83;1.10;;;;;;;;;;5052806;28;20451;-76
2021/01/19 13:49:16;;;;;;;1.23;0.90;;;;;;;;;;5053169;28;20426;-77
2021/01/19 13:51:42;;;;;;;1.20;0.80;;;;;;;;;;5034871;28;20736;-75
2021/01/19 13:54:08;;;;;;;0.90;0.90;;;;;;;;;;5052650;28;20534;-75
2021/01/19 13:56:34;;;;;;;2.85;1.13;;;;;;;;;;5052214;28;20215;-75
2021/01/19 13:59:01;;;;;;;2.38;1.05;;;;;;;;;;5052390;28;20561;-75
2021/01/19 14:04:30;;;;;;;2.33;1.02;;;;;;;;;;5052641;28;20188;-83
2021/01/19 14:06:56;;;;;;;0.70;0.70;;;;;;;;;;5052117;28;20644;-81
2021/01/19 14:09:22;;;;;;;4.60;0.85;;;;;;;;;;5051274;28;20187;-84
2021/01/19 14:11:50;;;;;;;1.67;0.90;;;;;;;;;;5051485;28;20165;-81
2021/01/19 14:14:18;;;;;;;1.20;0.70;;;;;;;;;;5051148;28;20170;-75
2021/01/19 14:16:45;;;;;;;1.10;0.75;;;;;;;;;;5051490;28;20521;-76
2021/01/19 14:19:11;;;;;;;0.88;0.88;;;;;;;;;;5051143;28;20257;-76
2021/01/19 14:21:37;;;;;;;1.95;0.70;;;;;;;;;;5051507;28;20166;-76
2021/01/19 14:24:03;;;;;;;0.70;0.57;;;;;;;;;;5050803;28;20321;-76
2021/01/19 14:26:32;;;;;;;1.52;0.82;;;;;;;;;;5050792;28;20447;-76
2021/01/19 14:28:58;;;;;;;0.93;0.77;;;;;;;;;;5050865;28;20205;-76
2021/01/19 14:34:27;;;;;;;1.35;1.08;;;;;;;;;;5051002;28;20236;-75
2021/01/19 14:36:54;;;;;;;0.80;0.70;;;;;;;;;;5050685;28;20193;-74
2021/01/19 14:39:23;;;;;;;0.68;0.57;;;;;;;;;;5050550;28;20170;-75
2021/01/19 14:41:49;;;;;;;0.70;0.70;;;;;;;;;;5051145;28;20169;-76
2021/01/19 14:44:15;;;;;;;1.95;0.60;;;;;;;;;;5050894;28;20271;-75
2021/01/19 14:49:45;;;;;;;2.67;0.88;;;;;;;;;;5051126;28;20577;-77
2021/01/19 14:52:11;;;;;;;1.00;0.52;;;;;;;;;;5050700;28;20315;-75
2021/01/19 14:54:37;;;;;;;1.00;0.80;;;;;;;;;;5050622;28;20192;-76
2021/01/19 14:57:03;;;;;;;2.45;1.30;;;;;;;;;;5050504;28;20498;-75
2021/01/19 14:59:29;;;;;;;1.33;0.67;;;;;;;;;;5050581;28;20198;-76
2021/01/19 15:05:00;;;;;;;2.05;1.17;;;;;;;;;;5050903;28;20343;-76
2021/01/19 15:07:26;;;;;;;1.38;0.60;;;;;;;;;;5049938;28;20552;-75
2021/01/19 15:09:53;;;;;;;2.20;0.70;;;;;;;;;;5050344;28;20171;-75
2021/01/19 15:12:19;;;;;;;1.17;0.77;;;;;;;;;;5050765;28;20529;-75
2021/01/19 15:14:46;;;;;;;2.55;0.90;;;;;;;;;;5032685;28;20266;-74
2021/01/19 15:17:13;;;;;;;1.05;0.70;;;;;;;;;;5050740;28;20194;-75
2021/01/19 15:19:39;;;;;;;1.50;0.73;;;;;;;;;;5050676;28;20169;-76
2021/01/19 15:22:06;;;;;;;0.90;0.65;;;;;;;;;;5050394;28;20174;-75
2021/01/19 15:24:32;;;;;;;1.77;1.08;;;;;;;;;;5050510;28;20166;-75
2021/01/19 15:26:58;;;;;;;1.05;0.95;;;;;;;;;;5050794;28;20212;-76
2021/01/19 15:29:24;;;;;;;1.27;0.80;;;;;;;;;;5049575;28;20649;-76
2021/01/19 15:34:54;;;;;;;1.15;0.30;;;;;;;;;;5050529;28;20183;-77
2021/01/19 15:37:20;;;;;;;1.20;0.70;;;;;;;;;;5050433;28;20201;-76
2021/01/19 15:39:46;;;;;;;1.85;0.65;;;;;;;;;;5050144;28;20171;-77
2021/01/19 15:42:12;;;;;;;7.22;1.05;;;;;;;;;;5050169;28;20168;-75
2021/01/19 15:44:38;;;;;;;1.98;0.82;;;;;;;;;;5050188;28;20209;-76
2021/01/19 15:50:11;;;;;;;1.23;1.13;;;;;;;;;;5050289;28;20644;-76
2021/01/19 15:52:37;;;;;;;1.67;0.70;;;;;;;;;;5050145;28;20320;-77
2021/01/19 15:55:04;;;;;;;1.85;0.88;;;;;;;;;;5049931;28;20173;-76
2021/01/19 15:57:30;;;;;;;1.17;0.50;;;;;;;;;;5050072;28;20177;-76
2021/01/19 15:59:56;;;;;;;0.90;0.70;;;;;;;;;;5049991;28;20551;-74
2021/01/19 16:05:26;;;;;;;1.38;1.00;;;;;;;;;;5049822;28;20554;-75
2021/01/19 16:07:52;;;;;;;0.80;0.70;;;;;;;;;;5049905;28;20257;-75
2021/01/19 16:10:22;;;;;;;0.53;0.53;;;;;;;;;;5049917;28;20201;-76
2021/01/19 16:12:47;;;;;;;0.80;0.80;;;;;;;;;;5050374;28;20526;-77
2021/01/19 16:15:14;;;;;;;1.27;0.80;;;;;;;;;;5049773;28;20172;-75
2021/01/19 16:17:40;;;;;;;0.90;0.80;;;;;;;;;;5051011;28;20503;-75
2021/01/19 16:20:06;;;;;;;1.38;0.70;;;;;;;;;;5053825;28;20154;-76
2021/01/19 16:22:32;;;;;;;0.57;0.57;;;;;;;;;;5054515;28;20251;-75
2021/01/19 16:24:58;;;;;;;1.97;1.30;;;;;;;;;;5054546;28;20173;-76